Time;durP1;ratioP1;P1;durP2;ratioP2;P2;SDS_P1;SDS_P2;PMS_P1;PMS_P2;Temp;Humidity;BMP_temperature;BMP_pressure;BME280_temperature;BME280_humidity;BME280_pressure;Samples;Min_cycle;Max_cycle;Signal;HPM_P1;HPM_P2
2022/09/30 00:04:41;;;;;;;2.15;1.52;;;8.30;99.90;;;;;;20934310;28;21366;-39
2022/09/30 00:14:42;;;;;;;3.42;1.67;;;8.30;99.90;;;;;;20941390;28;20036;-39
2022/09/30 00:24:43;;;;;;;2.90;1.60;;;8.20;99.90;;;;;;20937757;28;20189;-40
2022/09/30 00:34:44;;;;;;;4.07;1.92;;;8.10;99.90;;;;;;20942993;28;20048;-39
2022/09/30 00:45:12;;;;;;;2.13;1.50;;;8.00;99.90;;;;;;20937095;28;20178;-39
2022/09/30 00:55:25;;;;;;;2.30;1.17;;;8.00;99.90;;;;;;20939204;28;20081;-40
2022/09/30 01:05:26;;;;;;;4.28;2.13;;;7.90;99.90;;;;;;20932774;28;20428;-39
2022/09/30 01:15:43;;;;;;;3.47;1.98;;;7.90;99.90;;;;;;20947699;28;20066;-39
2022/09/30 01:26:06;;;;;;;2.70;1.90;;;7.90;99.90;;;;;;20965958;28;20307;-39
2022/09/30 01:36:27;;;;;;;3.90;2.53;;;7.90;99.90;;;;;;20964925;28;20121;-39
2022/09/30 01:46:35;;;;;;;3.90;2.03;;;8.00;99.90;;;;;;20962508;28;20074;-39
2022/09/30 01:56:46;;;;;;;3.88;1.88;;;8.10;99.90;;;;;;20961746;28;20954;-39
2022/09/30 02:06:52;;;;;;;4.25;2.67;;;8.10;99.90;;;;;;20955127;28;20082;-39
2022/09/30 02:16:59;;;;;;;4.50;2.40;;;8.00;99.90;;;;;;20940131;28;20139;-40
2022/09/30 02:27:01;;;;;;;5.73;2.57;;;8.00;99.90;;;;;;20935696;28;20120;-39
2022/09/30 02:37:16;;;;;;;4.35;2.45;;;7.90;99.90;;;;;;20940185;28;20131;-40
2022/09/30 02:47:33;;;;;;;3.72;2.60;;;7.80;99.90;;;;;;20938480;28;20067;-39
2022/09/30 02:57:52;;;;;;;4.72;3.08;;;7.70;99.90;;;;;;20938221;28;21688;-39
2022/09/30 03:07:54;;;;;;;5.53;2.85;;;7.70;99.90;;;;;;20939386;28;20127;-40
2022/09/30 03:18:13;;;;;;;6.13;2.28;;;7.60;99.90;;;;;;20929325;28;20039;-40
2022/09/30 03:28:48;;;;;;;5.07;2.95;;;7.50;99.90;;;;;;20926640;28;20398;-39
2022/09/30 03:39:13;;;;;;;3.95;2.20;;;7.40;99.90;;;;;;20895359;28;20828;-39
2022/09/30 03:49:22;;;;;;;6.45;3.65;;;7.40;99.90;;;;;;20925813;28;20142;-39
2022/09/30 03:59:26;;;;;;;4.50;3.05;;;7.30;99.90;;;;;;20929613;28;20159;-39
2022/09/30 04:09:27;;;;;;;6.13;2.88;;;7.20;99.90;;;;;;20938934;28;20040;-39
2022/09/30 04:19:29;;;;;;;5.57;2.83;;;7.20;99.90;;;;;;20966873;28;20032;-39
2022/09/30 04:29:30;;;;;;;5.63;3.40;;;7.10;99.90;;;;;;20973516;28;20933;-39
2022/09/30 04:39:31;;;;;;;4.75;3.25;;;7.10;99.90;;;;;;20967473;28;20090;-39
2022/09/30 04:49:32;;;;;;;3.45;2.25;;;7.00;99.90;;;;;;20971147;28;20361;-39
2022/09/30 04:59:33;;;;;;;5.05;2.28;;;7.00;99.90;;;;;;20973761;28;20408;-40
2022/09/30 05:09:34;;;;;;;5.05;3.03;;;7.00;99.90;;;;;;20967522;28;20422;-40
2022/09/30 05:19:35;;;;;;;6.18;2.97;;;7.10;99.90;;;;;;20940310;28;20122;-40
2022/09/30 05:29:36;;;;;;;4.95;2.05;;;7.20;99.90;;;;;;20939542;28;20126;-41
2022/09/30 05:39:37;;;;;;;6.85;2.78;;;7.30;99.90;;;;;;20939795;28;20047;-41
2022/09/30 05:49:39;;;;;;;3.78;2.08;;;7.40;99.90;;;;;;20932258;28;20330;-41
2022/09/30 05:59:39;;;;;;;5.75;3.47;;;7.40;99.90;;;;;;20959626;28;20516;-41
2022/09/30 06:09:41;;;;;;;4.53;2.85;;;7.50;99.90;;;;;;20972072;28;20056;-40
2022/09/30 06:19:42;;;;;;;10.93;3.78;;;7.60;99.90;;;;;;20970160;28;20078;-40
2022/09/30 06:29:43;;;;;;;6.30;3.92;;;7.80;99.90;;;;;;20952731;28;20031;-40
2022/09/30 06:39:44;;;;;;;6.07;4.00;;;8.00;99.90;;;;;;20956236;28;20039;-40
2022/09/30 06:49:45;;;;;;;8.05;3.92;;;8.40;99.90;;;;;;20970461;28;20032;-39
2022/09/30 06:59:46;;;;;;;6.97;5.07;;;8.80;99.90;;;;;;20959497;28;20028;-41
2022/09/30 07:09:47;;;;;;;8.80;4.63;;;9.10;99.90;;;;;;20952308;28;20047;-40
2022/09/30 07:19:51;;;;;;;8.25;5.13;;;9.50;99.90;;;;;;20951881;28;20127;-39
2022/09/30 07:29:52;;;;;;;12.75;6.13;;;10.00;99.90;;;;;;20955092;28;20832;-40
2022/09/30 07:39:53;;;;;;;9.98;5.20;;;10.50;99.90;;;;;;20959711;28;20135;-39
2022/09/30 07:49:54;;;;;;;8.25;4.13;;;11.20;99.90;;;;;;20956871;28;20036;-40
2022/09/30 07:59:55;;;;;;;7.85;4.72;;;11.50;99.90;;;;;;20963547;28;20067;-39
2022/09/30 08:09:56;;;;;;;9.18;4.05;;;11.80;99.90;;;;;;20963162;28;20040;-39
2022/09/30 08:19:57;;;;;;;6.13;4.30;;;12.20;99.90;;;;;;20957147;28;20087;-39
2022/09/30 08:29:58;;;;;;;4.45;2.60;;;12.50;99.90;;;;;;20971473;28;20479;-39
2022/09/30 08:40:00;;;;;;;6.47;3.63;;;12.60;99.90;;;;;;20962690;28;20508;-39
2022/09/30 08:50:16;;;;;;;7.28;3.08;;;12.50;99.90;;;;;;20959101;28;20174;-39
2022/09/30 09:00:18;;;;;;;3.65;1.80;;;12.90;99.90;;;;;;20953790;28;20548;-39
2022/09/30 09:10:58;;;;;;;4.13;2.95;;;13.60;99.90;;;;;;20960891;28;20063;-39
2022/09/30 09:21:12;;;;;;;3.53;2.33;;;13.70;99.90;;;;;;20853907;28;20715;-40
2022/09/30 09:31:17;;;;;;;2.50;1.58;;;14.00;99.90;;;;;;20970067;28;20039;-40
2022/09/30 09:41:55;;;;;;;1.77;1.10;;;14.50;99.90;;;;;;20967639;28;20044;-39
2022/09/30 09:52:04;;;;;;;2.50;1.10;;;14.60;99.90;;;;;;20958011;28;20077;-40
2022/09/30 10:02:25;;;;;;;1.40;0.80;;;14.70;99.90;;;;;;20957602;28;20217;-38
2022/09/30 10:12:28;;;;;;;2.42;0.65;;;15.00;99.90;;;;;;20962401;28;20435;-38
2022/09/30 10:22:31;;;;;;;1.23;0.50;;;15.30;99.90;;;;;;20978474;28;20048;-38
2022/09/30 10:32:32;;;;;;;1.00;0.40;;;15.40;99.90;;;;;;20983323;28;20881;-40
2022/09/30 10:42:38;;;;;;;1.80;0.77;;;15.60;99.90;;;;;;20968246;28;20055;-38
2022/09/30 10:53:03;;;;;;;0.95;0.40;;;15.80;99.90;;;;;;20962197;28;20082;-38
2022/09/30 11:03:15;;;;;;;1.02;0.40;;;16.10;99.90;;;;;;20961211;28;20181;-38
2022/09/30 11:13:28;;;;;;;2.40;0.77;;;16.70;99.90;;;;;;20962349;28;20166;-38
2022/09/30 11:23:39;;;;;;;1.85;0.50;;;16.90;99.90;;;;;;20962655;28;20189;-38
2022/09/30 11:33:49;;;;;;;0.55;0.30;;;17.00;99.90;;;;;;20965777;28;20310;-38
2022/09/30 11:44:13;;;;;;;0.65;0.30;;;18.10;99.90;;;;;;20972299;28;20257;-38
2022/09/30 11:54:23;;;;;;;0.82;0.25;;;17.60;99.90;;;;;;20961817;28;20123;-38
2022/09/30 12:04:30;;;;;;;2.80;0.85;;;18.50;99.90;;;;;;20967455;28;20178;-38
2022/09/30 12:14:43;;;;;;;3.90;0.68;;;18.60;99.90;;;;;;20956934;28;20930;-38
2022/09/30 12:24:44;;;;;;;2.88;0.50;;;18.90;99.90;;;;;;20964459;28;20076;-38
2022/09/30 12:35:02;;;;;;;0.88;0.28;;;18.90;99.90;;;;;;20966850;28;20048;-38
2022/09/30 12:45:34;;;;;;;2.65;0.88;;;19.10;99.90;;;;;;20968639;28;20036;-38
2022/09/30 12:55:40;;;;;;;2.17;0.90;;;18.30;99.90;;;;;;20965104;28;20816;-38
2022/09/30 13:05:42;;;;;;;1.17;0.68;;;19.20;99.90;;;;;;20963127;28;20056;-38
2022/09/30 13:15:45;;;;;;;1.45;0.70;;;18.60;99.90;;;;;;20953327;28;20253;-38
2022/09/30 13:25:53;;;;;;;0.93;0.57;;;18.10;99.90;;;;;;20957923;28;20201;-38
2022/09/30 13:35:57;;;;;;;1.92;0.63;;;17.90;99.90;;;;;;20964671;28;20097;-38
2022/09/30 13:46:05;;;;;;;1.75;0.45;;;18.50;99.90;;;;;;20963659;28;20132;-38
2022/09/30 13:56:14;;;;;;;1.60;0.70;;;18.30;99.90;;;;;;20965280;28;20089;-38
2022/09/30 14:06:34;;;;;;;1.88;0.75;;;17.60;99.90;;;;;;20950127;28;20074;-38
2022/09/30 14:17:11;;;;;;;1.95;1.13;;;18.00;99.90;;;;;;20947104;28;20926;-38
2022/09/30 14:27:49;;;;;;;2.05;0.98;;;18.10;99.90;;;;;;20960916;28;20605;-38
2022/09/30 14:38:00;;;;;;;1.80;1.10;;;17.60;99.90;;;;;;20940390;28;20661;-38
2022/09/30 14:48:08;;;;;;;1.10;0.68;;;17.90;99.90;;;;;;20947109;28;20064;-38
2022/09/30 14:58:20;;;;;;;2.67;1.33;;;17.90;99.90;;;;;;20939951;28;20131;-38
2022/09/30 15:08:22;;;;;;;3.15;1.00;;;17.70;99.90;;;;;;20941760;28;20072;-38
2022/09/30 15:18:25;;;;;;;2.33;1.38;;;17.50;99.90;;;;;;20945299;28;20124;-38
2022/09/30 15:28:26;;;;;;;3.17;1.45;;;17.10;99.90;;;;;;20936246;28;20121;-38
2022/09/30 15:38:29;;;;;;;3.05;1.60;;;17.00;99.90;;;;;;20962188;28;20048;-38
2022/09/30 15:48:32;;;;;;;2.13;0.88;;;16.80;99.90;;;;;;20948063;28;20845;-38
2022/09/30 15:58:40;;;;;;;2.10;1.00;;;16.60;99.90;;;;;;20956505;28;20879;-38
2022/09/30 16:08:45;;;;;;;2.00;1.40;;;16.50;99.90;;;;;;20958047;28;20532;-38
2022/09/30 16:18:48;;;;;;;4.18;1.08;;;16.20;99.90;;;;;;20976812;28;20036;-38
2022/09/30 16:28:52;;;;;;;2.05;1.10;;;16.00;99.90;;;;;;20990562;28;20036;-38
2022/09/30 16:38:53;;;;;;;2.28;1.10;;;15.80;99.90;;;;;;20983239;28;20515;-38
2022/09/30 16:48:54;;;;;;;3.05;1.10;;;15.80;99.90;;;;;;20994761;28;20475;-38
2022/09/30 16:58:56;;;;;;;2.25;1.10;;;15.70;99.90;;;;;;20985673;28;20036;-38
2022/09/30 17:08:59;;;;;;;1.42;0.80;;;15.40;99.90;;;;;;20968900;28;20048;-38
2022/09/30 17:19:00;;;;;;;2.67;1.35;;;15.20;99.90;;;;;;20968683;28;20044;-41
2022/09/30 17:29:02;;;;;;;2.20;1.02;;;15.10;99.90;;;;;;20975586;28;20040;-38
2022/09/30 17:39:04;;;;;;;3.55;1.40;;;15.10;99.90;;;;;;20969058;28;20048;-39
2022/09/30 17:49:05;;;;;;;2.47;1.02;;;14.80;99.90;;;;;;20967313;28;20086;-40
2022/09/30 17:59:08;;;;;;;3.75;1.70;;;14.70;99.90;;;;;;20981288;28;20044;-40
2022/09/30 18:09:10;;;;;;;3.05;1.70;;;14.60;99.90;;;;;;20944375;28;20117;-40
2022/09/30 18:19:11;;;;;;;2.40;1.33;;;14.40;99.90;;;;;;20955140;28;20614;-40
2022/09/30 18:29:12;;;;;;;2.90;1.70;;;14.30;99.90;;;;;;20962034;28;20047;-40
2022/09/30 18:39:13;;;;;;;6.88;1.90;;;14.30;99.90;;;;;;20955414;28;20052;-40
2022/09/30 18:49:14;;;;;;;2.63;1.35;;;14.30;99.90;;;;;;20957799;28;20082;-38
2022/09/30 18:59:16;;;;;;;3.63;1.50;;;14.20;99.90;;;;;;20951621;28;20028;-39
2022/09/30 19:09:17;;;;;;;2.47;1.20;;;14.20;99.90;;;;;;20958192;28;20452;-39
2022/09/30 19:19:19;;;;;;;2.38;1.25;;;14.30;99.90;;;;;;20968988;28;20036;-39
2022/09/30 19:29:20;;;;;;;2.22;1.00;;;14.30;99.90;;;;;;20963241;28;20565;-38
2022/09/30 19:39:21;;;;;;;5.03;0.95;;;14.30;99.90;;;;;;20979340;28;20117;-38
2022/09/30 19:49:22;;;;;;;2.35;1.02;;;14.30;99.90;;;;;;20963882;28;20048;-39
2022/09/30 19:59:25;;;;;;;3.10;1.45;;;14.30;99.90;;;;;;20969332;28;20055;-39
2022/09/30 20:09:26;;;;;;;1.60;0.60;;;14.30;99.90;;;;;;20963926;28;20040;-39
2022/09/30 20:19:27;;;;;;;1.35;0.57;;;14.40;99.90;;;;;;20982739;28;20053;-38
2022/09/30 20:29:28;;;;;;;2.38;1.25;;;14.20;99.90;;;;;;20972228;28;20074;-38
2022/09/30 20:39:29;;;;;;;2.03;1.08;;;14.20;99.90;;;;;;20967901;28;20048;-38
2022/09/30 20:49:30;;;;;;;2.33;0.77;;;14.20;99.90;;;;;;20961640;28;20036;-39
2022/09/30 20:59:31;;;;;;;1.60;0.60;;;14.20;99.90;;;;;;20965489;28;21857;-39
2022/09/30 21:09:34;;;;;;;0.85;0.47;;;14.10;99.90;;;;;;20968213;28;20083;-39
2022/09/30 21:19:36;;;;;;;3.15;1.15;;;13.90;99.90;;;;;;20964710;28;20036;-39
2022/09/30 21:29:36;;;;;;;2.90;0.80;;;13.50;99.90;;;;;;20957351;28;20086;-38
2022/09/30 21:39:37;;;;;;;1.70;0.80;;;13.00;99.90;;;;;;20968741;28;20048;-39
2022/09/30 21:49:39;;;;;;;2.92;1.70;;;12.80;99.90;;;;;;20945631;28;20044;-38
2022/09/30 21:59:42;;;;;;;3.35;1.50;;;12.60;99.90;;;;;;20938616;28;20115;-38
2022/09/30 22:09:43;;;;;;;2.70;1.52;;;12.50;99.90;;;;;;20946626;28;20075;-38
2022/09/30 22:19:44;;;;;;;3.75;1.98;;;12.20;99.90;;;;;;20949287;28;20094;-38
2022/09/30 22:29:45;;;;;;;2.55;1.60;;;11.90;99.90;;;;;;20937162;28;20043;-38
2022/09/30 22:39:46;;;;;;;5.20;1.70;;;11.70;99.90;;;;;;20951143;28;20048;-38
2022/09/30 22:49:47;;;;;;;2.92;1.42;;;11.50;99.90;;;;;;20933682;28;20391;-38
2022/09/30 22:59:48;;;;;;;4.75;1.77;;;11.50;99.90;;;;;;20954960;28;20568;-39
2022/09/30 23:09:49;;;;;;;3.60;2.13;;;11.40;99.90;;;;;;20956407;28;20653;-40
2022/09/30 23:19:50;;;;;;;3.22;1.60;;;11.40;99.90;;;;;;20950238;28;20045;-40
2022/09/30 23:29:50;;;;;;;3.38;1.83;;;11.40;99.90;;;;;;20942791;28;20064;-39
2022/09/30 23:39:52;;;;;;;3.58;2.15;;;11.30;99.90;;;;;;20943258;28;20222;-39
2022/09/30 23:49:54;;;;;;;3.42;2.58;;;11.20;99.90;;;;;;20942002;28;20305;-39
2022/09/30 23:59:55;;;;;;;7.28;3.03;;;11.20;99.90;;;;;;20921124;28;20101;-40
